createdAt,value
2018-12-21T00:00:07.327Z,1001.34
2018-12-21T00:00:47.570Z,1001.35
2018-12-21T00:02:06.524Z,1001.28
2018-12-21T00:03:14.214Z,1001.30
2018-12-21T00:04:35.832Z,1001.29
2018-12-21T00:06:13.117Z,1001.31
2018-12-21T00:06:47.319Z,1001.30
2018-12-21T00:08:01.766Z,1001.25
2018-12-21T00:09:33.109Z,1001.24
2018-12-21T00:10:09.218Z,1001.28
2018-12-21T00:11:38.348Z,1001.34
2018-12-21T00:12:27.913Z,1001.34
2018-12-21T00:14:05.817Z,1001.32
2018-12-21T00:14:52.815Z,1001.35
2018-12-21T00:15:47.302Z,1001.37
2018-12-21T00:18:03.694Z,1001.38
2018-12-21T00:19:16.301Z,1001.37
2018-12-21T00:20:14.466Z,1001.36
2018-12-21T00:20:56.555Z,1001.38
2018-12-21T00:22:17.867Z,1001.32
2018-12-21T00:23:26.299Z,1001.26
2018-12-21T00:24:34.368Z,1001.23
2018-12-21T00:25:46.366Z,1001.19
2018-12-21T00:26:22.711Z,1001.17
2018-12-21T00:27:47.093Z,1001.14
2018-12-21T00:28:52.630Z,1001.11
2018-12-21T00:29:48.444Z,1001.06
2018-12-21T00:30:47.427Z,1001.03
2018-12-21T00:32:02.387Z,1000.99
2018-12-21T00:33:35.169Z,1000.98
2018-12-21T00:34:57.197Z,1000.96
2018-12-21T00:35:32.413Z,1000.96
2018-12-21T00:37:16.767Z,1000.97
2018-12-21T00:37:46.360Z,1001.01
2018-12-21T00:38:51.395Z,1001.00
2018-12-21T00:40:08.187Z,1001.09
2018-12-21T00:41:16.698Z,1001.05
2018-12-21T00:42:17.424Z,1001.02
2018-12-21T00:44:27.579Z,1000.97
2018-12-21T00:45:18.779Z,1000.95
2018-12-21T00:46:10.297Z,1000.98
2018-12-21T00:47:16.853Z,1000.90
2018-12-21T00:48:29.253Z,1000.90
2018-12-21T00:49:48.104Z,1000.91
2018-12-21T00:50:25.585Z,1000.89
2018-12-21T00:51:45.563Z,1000.88
2018-12-21T00:52:37.583Z,1000.84
2018-12-21T00:53:51.520Z,1000.84
2018-12-21T00:55:17.542Z,1000.84
2018-12-21T00:56:05.471Z,1000.79
2018-12-21T00:57:15.921Z,1000.79
2018-12-21T00:58:15.359Z,1000.77
2018-12-21T00:59:41.952Z,1000.73
2018-12-21T01:00:28.956Z,1000.72
2018-12-21T01:01:47.599Z,1000.73
2018-12-21T01:03:00.005Z,1000.70
2018-12-21T01:03:46.899Z,1000.69
2018-12-21T01:04:34.005Z,1000.72
2018-12-21T01:06:10.775Z,1000.68
2018-12-21T01:07:12.731Z,1000.62
2018-12-21T01:08:38.015Z,1000.59
2018-12-21T01:09:43.773Z,1000.63
2018-12-21T01:10:15.006Z,1000.65
2018-12-21T01:11:12.361Z,1000.60
2018-12-21T01:12:46.464Z,1000.55
2018-12-21T01:14:01.529Z,1000.61
2018-12-21T01:15:01.508Z,1000.57
2018-12-21T01:16:19.467Z,1000.57
2018-12-21T01:17:17.528Z,1000.60
2018-12-21T01:18:07.710Z,1000.57
2018-12-21T01:19:43.669Z,1000.56
2018-12-21T01:20:28.614Z,1000.53
2018-12-21T01:21:46.549Z,1000.60
2018-12-21T01:22:44.601Z,1000.57
2018-12-21T01:23:29.355Z,1000.54
2018-12-21T01:24:36.532Z,1000.56
2018-12-21T01:26:26.409Z,1000.58
2018-12-21T01:27:16.189Z,1000.59
2018-12-21T01:28:13.427Z,1000.65
2018-12-21T01:29:19.060Z,1000.69
2018-12-21T01:30:34.119Z,1000.71
2018-12-21T01:31:25.628Z,1000.62
2018-12-21T01:32:34.651Z,1000.60
2018-12-21T01:33:58.111Z,1000.54
2018-12-21T01:35:40.410Z,1000.56
2018-12-21T01:36:45.949Z,1000.57
2018-12-21T01:37:40.429Z,1000.58
2018-12-21T01:38:21.389Z,1000.54
2018-12-21T01:39:19.144Z,1000.51
2018-12-21T01:40:49.669Z,1000.48
2018-12-21T01:42:09.849Z,1000.47
2018-12-21T01:43:05.660Z,1000.47
2018-12-21T01:44:33.727Z,1000.43
2018-12-21T01:45:47.562Z,1000.45
2018-12-21T01:46:48.902Z,1000.39
2018-12-21T01:47:29.452Z,1000.43
2018-12-21T01:48:42.876Z,1000.42
2018-12-21T01:49:46.375Z,1000.48
2018-12-21T01:51:18.639Z,1000.41
2018-12-21T01:52:07.278Z,1000.40
2018-12-21T01:53:28.075Z,1000.43
2018-12-21T01:54:25.522Z,1000.41
2018-12-21T01:55:37.513Z,1000.42
2018-12-21T01:56:25.643Z,1000.39
2018-12-21T01:57:49.205Z,1000.30
2018-12-21T01:58:37.131Z,1000.39
2018-12-21T01:59:50.461Z,1000.35
2018-12-21T02:00:47.800Z,1000.40
2018-12-21T02:01:46.580Z,1000.31
2018-12-21T02:02:46.792Z,1000.31
2018-12-21T02:04:34.009Z,1000.25
2018-12-21T02:05:55.733Z,1000.19
2018-12-21T02:07:17.449Z,1000.20
2018-12-21T02:08:42.949Z,1000.14
2018-12-21T02:09:46.340Z,1000.08
2018-12-21T02:10:20.754Z,1000.07
2018-12-21T02:11:30.689Z,1000.07
2018-12-21T02:12:35.923Z,1000.04
2018-12-21T02:14:20.064Z,1000.06
2018-12-21T02:15:14.649Z,1000.04
2018-12-21T02:16:17.522Z,999.99
2018-12-21T02:17:32.687Z,999.93
2018-12-21T02:18:29.726Z,1000.03
2018-12-21T02:19:33.422Z,999.93
2018-12-21T02:20:30.669Z,999.92
2018-12-21T02:21:43.576Z,999.91
2018-12-21T02:23:05.304Z,999.86
2018-12-21T02:23:56.402Z,999.84
2018-12-21T02:24:50.362Z,999.81
2018-12-21T02:26:27.030Z,999.80
2018-12-21T02:27:27.247Z,999.79
2018-12-21T02:28:30.219Z,999.77
2018-12-21T02:29:06.986Z,999.76
2018-12-21T02:30:00.953Z,999.67
2018-12-21T02:31:29.221Z,999.68
2018-12-21T02:33:16.952Z,999.74
2018-12-21T02:34:07.846Z,999.71
2018-12-21T02:35:09.800Z,999.70
2018-12-21T02:36:16.879Z,999.70
2018-12-21T02:37:12.891Z,999.67
2018-12-21T02:38:18.219Z,999.68
2018-12-21T02:40:48.449Z,999.63
2018-12-21T02:41:25.210Z,999.64
2018-12-21T02:42:24.091Z,999.64
2018-12-21T02:43:36.797Z,999.57
2018-12-21T02:44:52.786Z,999.58
2018-12-21T02:46:15.627Z,999.46
2018-12-21T02:47:18.811Z,999.49
2018-12-21T02:47:51.787Z,999.44
2018-12-21T02:49:31.526Z,999.42
2018-12-21T02:50:25.391Z,999.43
2018-12-21T02:51:18.846Z,999.37
2018-12-21T02:52:14.759Z,999.40
2018-12-21T02:53:52.555Z,999.35
2018-12-21T02:55:05.772Z,999.35
2018-12-21T02:55:42.536Z,999.30
2018-12-21T02:56:47.258Z,999.34
2018-12-21T02:57:57.096Z,999.36
2018-12-21T03:00:14.316Z,999.35
2018-12-21T03:01:22.619Z,999.39
2018-12-21T03:01:49.250Z,999.37
2018-12-21T03:03:46.089Z,999.31
2018-12-21T03:04:48.146Z,999.27
2018-12-21T03:05:45.084Z,999.24
2018-12-21T03:07:30.764Z,999.26
2018-12-21T03:08:16.847Z,999.23
2018-12-21T03:09:20.027Z,999.29
2018-12-21T03:10:35.090Z,999.19
2018-12-21T03:11:10.009Z,999.18
2018-12-21T03:12:36.746Z,999.12
2018-12-21T03:13:48.119Z,999.09
2018-12-21T03:14:37.887Z,999.07
2018-12-21T03:15:49.980Z,999.06
2018-12-21T03:16:50.500Z,998.98
2018-12-21T03:18:33.625Z,998.95
2018-12-21T03:19:18.681Z,998.92
2018-12-21T03:20:11.723Z,998.88
2018-12-21T03:21:19.722Z,998.82
2018-12-21T03:22:36.625Z,998.80
2018-12-21T03:23:30.290Z,998.82
2018-12-21T03:24:40.538Z,998.79
2018-12-21T03:26:20.485Z,998.75
2018-12-21T03:26:49.160Z,998.76
2018-12-21T03:28:42.426Z,998.74
2018-12-21T03:30:02.907Z,998.71
2018-12-21T03:30:30.249Z,998.63
2018-12-21T03:31:39.574Z,998.60
2018-12-21T03:32:52.908Z,998.63
2018-12-21T03:33:50.264Z,998.63
2018-12-21T03:34:56.910Z,998.63
2018-12-21T03:36:29.793Z,998.60
2018-12-21T03:37:14.641Z,998.61
2018-12-21T03:38:34.625Z,998.52
2018-12-21T03:40:09.756Z,998.46
2018-12-21T03:41:01.378Z,998.41
2018-12-21T03:42:11.516Z,998.31
2018-12-21T03:43:00.773Z,998.26
2018-12-21T03:45:00.895Z,998.28
2018-12-21T03:45:27.822Z,998.22
2018-12-21T03:47:02.955Z,998.18
2018-12-21T03:48:14.741Z,998.17
2018-12-21T03:49:09.631Z,998.21
2018-12-21T03:51:04.742Z,998.21
2018-12-21T03:52:24.246Z,998.22
2018-12-21T03:52:42.938Z,998.17
2018-12-21T03:53:53.298Z,998.20
2018-12-21T03:55:37.640Z,998.08
2018-12-21T03:56:45.236Z,998.13
2018-12-21T03:57:47.589Z,998.14
2018-12-21T03:58:19.134Z,998.07
2018-12-21T03:59:31.425Z,998.12
2018-12-21T04:00:30.410Z,998.10
2018-12-21T04:02:14.753Z,998.14
2018-12-21T04:02:52.239Z,998.08
2018-12-21T04:04:04.430Z,998.11
2018-12-21T04:05:27.170Z,998.10
2018-12-21T04:06:09.981Z,998.14
2018-12-21T04:07:16.746Z,998.08
2018-12-21T04:09:19.122Z,998.06
2018-12-21T04:10:17.182Z,997.98
2018-12-21T04:11:01.829Z,997.93
2018-12-21T04:12:18.531Z,997.85
2018-12-21T04:13:18.030Z,997.91
2018-12-21T04:14:47.013Z,997.90
2018-12-21T04:15:20.601Z,997.88
2018-12-21T04:16:43.659Z,997.98
2018-12-21T04:17:47.039Z,997.90
2018-12-21T04:18:47.457Z,997.83
2018-12-21T04:19:50.438Z,997.83
2018-12-21T04:21:06.014Z,997.84
2018-12-21T04:22:01.818Z,997.73
2018-12-21T04:23:05.618Z,997.68
2018-12-21T04:24:17.712Z,997.62
2018-12-21T04:25:13.723Z,997.53
2018-12-21T04:26:16.806Z,997.50
2018-12-21T04:27:47.638Z,997.44
2018-12-21T04:28:45.497Z,997.41
2018-12-21T04:29:45.300Z,997.35
2018-12-21T04:30:31.484Z,997.28
2018-12-21T04:32:01.495Z,997.23
2018-12-21T04:32:42.354Z,997.26
2018-12-21T04:34:14.110Z,997.28
2018-12-21T04:35:15.346Z,997.15
2018-12-21T04:36:03.988Z,997.14
2018-12-21T04:37:09.631Z,997.10
2018-12-21T04:38:36.262Z,997.04
2018-12-21T04:39:17.326Z,996.99
2018-12-21T04:40:40.580Z,997.04
2018-12-21T04:42:17.670Z,997.00
2018-12-21T04:43:39.892Z,997.01
2018-12-21T04:44:37.853Z,996.95
2018-12-21T04:45:46.053Z,996.90
2018-12-21T04:46:21.178Z,996.83
2018-12-21T04:47:25.279Z,996.80
2018-12-21T04:48:45.973Z,996.79
2018-12-21T04:49:47.722Z,996.76
2018-12-21T04:51:12.519Z,996.78
2018-12-21T04:52:06.891Z,996.76
2018-12-21T04:53:11.305Z,996.68
2018-12-21T04:54:14.803Z,996.72
2018-12-21T04:55:01.492Z,996.69
2018-12-21T04:56:17.990Z,996.63
2018-12-21T04:57:11.951Z,996.60
2018-12-21T04:58:41.761Z,996.61
2018-12-21T04:59:48.223Z,996.59
2018-12-21T05:00:30.309Z,996.59
2018-12-21T05:01:53.359Z,996.58
2018-12-21T05:02:47.123Z,996.48
2018-12-21T05:03:52.456Z,996.50
2018-12-21T05:04:47.550Z,996.44
2018-12-21T05:06:16.129Z,996.37
2018-12-21T05:07:36.412Z,996.42
2018-12-21T05:08:26.180Z,996.40
2018-12-21T05:09:11.648Z,996.39
2018-12-21T05:10:52.618Z,996.47
2018-12-21T05:11:37.369Z,996.47
2018-12-21T05:12:41.478Z,996.40
2018-12-21T05:13:45.478Z,996.38
2018-12-21T05:14:37.503Z,996.40
2018-12-21T05:15:47.447Z,996.33
2018-12-21T05:16:52.986Z,996.43
2018-12-21T05:18:01.387Z,996.38
2018-12-21T05:19:05.805Z,996.28
2018-12-21T05:20:24.034Z,996.31
2018-12-21T05:21:41.248Z,996.25
2018-12-21T05:22:23.443Z,996.20
2018-12-21T05:23:43.106Z,996.22
2018-12-21T05:24:32.670Z,996.24
2018-12-21T05:25:32.989Z,996.31
2018-12-21T05:26:57.775Z,996.20
2018-12-21T05:27:54.199Z,996.17
2018-12-21T05:28:48.271Z,996.19
2018-12-21T05:30:00.976Z,996.16
2018-12-21T05:31:28.301Z,996.09
2018-12-21T05:32:15.024Z,996.09
2018-12-21T05:33:31.426Z,996.07
2018-12-21T05:34:22.212Z,995.96
2018-12-21T05:35:48.946Z,995.90
2018-12-21T05:36:55.102Z,996.00
2018-12-21T05:37:54.194Z,995.99
2018-12-21T05:38:48.251Z,996.03
2018-12-21T05:39:54.406Z,995.94
2018-12-21T05:40:58.610Z,995.88
2018-12-21T05:42:05.891Z,995.88
2018-12-21T05:43:47.680Z,995.84
2018-12-21T05:44:20.654Z,995.85
2018-12-21T05:45:39.316Z,995.74
2018-12-21T05:46:54.568Z,995.74
2018-12-21T05:47:22.321Z,995.77
2018-12-21T05:48:47.602Z,995.89
2018-12-21T05:49:58.588Z,995.73
2018-12-21T05:51:04.232Z,995.70
2018-12-21T05:52:18.269Z,995.68
2018-12-21T05:53:08.239Z,995.68
2018-12-21T05:54:15.316Z,995.58
2018-12-21T05:55:04.880Z,995.55
2018-12-21T05:56:44.314Z,995.53
2018-12-21T05:57:47.805Z,995.51
2018-12-21T05:58:41.159Z,995.45
2018-12-21T05:59:49.464Z,995.44
2018-12-21T06:01:07.086Z,995.36
2018-12-21T06:02:13.035Z,995.34
2018-12-21T06:03:08.014Z,995.32
2018-12-21T06:04:17.761Z,995.25
2018-12-21T06:05:37.942Z,995.27
2018-12-21T06:06:34.983Z,995.22
2018-12-21T06:07:36.225Z,995.24
2018-12-21T06:08:39.813Z,995.22
2018-12-21T06:09:46.684Z,995.18
2018-12-21T06:10:34.507Z,995.20
2018-12-21T06:11:34.823Z,995.14
2018-12-21T06:12:47.633Z,995.13
2018-12-21T06:14:01.886Z,995.06
2018-12-21T06:15:06.702Z,995.00
2018-12-21T06:16:21.655Z,994.93
2018-12-21T06:17:17.156Z,994.90
2018-12-21T06:18:36.517Z,994.88
2018-12-21T06:19:43.592Z,994.83
2018-12-21T06:20:36.534Z,994.75
2018-12-21T06:21:21.491Z,994.68
2018-12-21T06:22:39.494Z,994.69
2018-12-21T06:23:54.377Z,994.79
2018-12-21T06:25:08.523Z,994.62
2018-12-21T06:25:57.116Z,994.61
2018-12-21T06:27:07.303Z,994.51
2018-12-21T06:28:05.227Z,994.52
2018-12-21T06:29:38.246Z,994.52
2018-12-21T06:30:31.294Z,994.42
2018-12-21T06:31:31.200Z,994.36
2018-12-21T06:32:30.841Z,994.37
2018-12-21T06:33:47.814Z,994.33
2018-12-21T06:34:54.163Z,994.28
2018-12-21T06:35:47.927Z,994.23
2018-12-21T06:37:12.922Z,994.26
2018-12-21T06:38:33.103Z,994.17
2018-12-21T06:39:14.985Z,994.22
2018-12-21T06:40:18.986Z,994.09
2018-12-21T06:41:06.913Z,994.06
2018-12-21T06:42:29.858Z,993.98
2018-12-21T06:43:31.915Z,993.91
2018-12-21T06:44:29.878Z,993.81
2018-12-21T06:45:56.716Z,993.79
2018-12-21T06:47:06.762Z,993.71
2018-12-21T06:47:58.688Z,993.69
2018-12-21T06:49:41.806Z,993.68
2018-12-21T06:50:19.589Z,993.61
2018-12-21T06:51:29.634Z,993.55
2018-12-21T06:53:17.612Z,993.59
2018-12-21T06:54:07.547Z,993.65
2018-12-21T06:54:42.563Z,993.50
2018-12-21T06:56:19.541Z,993.44
2018-12-21T06:56:58.452Z,993.37
2018-12-21T06:58:05.528Z,993.35
2018-12-21T06:59:12.495Z,993.36
2018-12-21T07:00:16.809Z,993.25
2018-12-21T07:01:39.931Z,993.26
2018-12-21T07:03:00.656Z,993.15
2018-12-21T07:03:39.269Z,993.13
2018-12-21T07:05:09.814Z,993.22
2018-12-21T07:06:06.219Z,993.17
2018-12-21T07:07:10.318Z,993.22
2018-12-21T07:08:04.870Z,993.04
2018-12-21T07:09:11.155Z,993.16
2018-12-21T07:10:18.639Z,993.10
2018-12-21T07:11:05.130Z,993.09
2018-12-21T07:12:38.111Z,992.88
2018-12-21T07:13:44.983Z,993.13
2018-12-21T07:14:37.007Z,993.13
2018-12-21T07:16:04.047Z,993.05
2018-12-21T07:16:33.955Z,993.09
2018-12-21T07:18:06.525Z,993.06
2018-12-21T07:19:30.904Z,993.04
2018-12-21T07:20:14.116Z,993.03
2018-12-21T07:21:55.804Z,993.08
2018-12-21T07:22:47.825Z,992.95
2018-12-21T07:23:37.800Z,992.82
2018-12-21T07:24:50.403Z,992.73
2018-12-21T07:26:14.680Z,992.82
2018-12-21T07:27:37.728Z,992.62
2018-12-21T07:28:32.936Z,992.62
2018-12-21T07:29:43.209Z,992.76
2018-12-21T07:30:54.655Z,992.72
2018-12-21T07:31:46.165Z,992.88
2018-12-21T07:32:43.822Z,992.85
2018-12-21T07:33:46.895Z,992.75
2018-12-21T07:34:49.470Z,992.74
2018-12-21T07:36:16.516Z,992.68
2018-12-21T07:37:08.425Z,992.61
2018-12-21T07:38:07.615Z,992.70
2018-12-21T07:39:10.390Z,992.64
2018-12-21T07:40:13.142Z,992.62
2018-12-21T07:42:22.293Z,992.59
2018-12-21T07:42:48.713Z,992.65
2018-12-21T07:44:47.808Z,992.56
2018-12-21T07:45:43.513Z,992.63
2018-12-21T07:46:47.826Z,992.48
2018-12-21T07:47:40.971Z,992.53
2018-12-21T07:48:34.938Z,992.50
2018-12-21T07:49:59.113Z,992.58
2018-12-21T07:50:43.761Z,992.60
2018-12-21T07:52:18.281Z,992.46
2018-12-21T07:53:50.753Z,992.35
2018-12-21T07:54:33.763Z,992.43
2018-12-21T07:55:52.307Z,992.37
2018-12-21T07:56:40.948Z,992.53
2018-12-21T07:57:46.693Z,992.41
2018-12-21T07:59:11.893Z,992.34
2018-12-21T08:00:18.866Z,992.16
2018-12-21T08:01:23.896Z,992.22
2018-12-21T08:02:08.644Z,992.23
2018-12-21T08:03:59.853Z,992.16
2018-12-21T08:04:45.421Z,992.29
2018-12-21T08:05:54.441Z,992.17
2018-12-21T08:06:40.319Z,992.19
2018-12-21T08:08:18.524Z,992.20
2018-12-21T08:09:17.921Z,992.18
2018-12-21T08:10:12.705Z,992.15
2018-12-21T08:11:00.644Z,992.13
2018-12-21T08:12:05.558Z,992.23
2018-12-21T08:13:20.311Z,992.01
2018-12-21T08:14:46.333Z,991.87
2018-12-21T08:16:04.362Z,991.90
2018-12-21T08:17:08.158Z,991.88
2018-12-21T08:20:12.176Z,991.88
2018-12-21T08:20:58.464Z,991.76
2018-12-21T08:22:17.008Z,991.77
2018-12-21T08:23:17.633Z,991.67
2018-12-21T08:24:09.650Z,991.75
2018-12-21T08:25:31.529Z,991.65
2018-12-21T08:26:35.885Z,991.57
2018-12-21T08:27:54.323Z,991.59
2018-12-21T08:28:46.038Z,991.55
2018-12-21T08:29:26.076Z,991.50
2018-12-21T08:30:46.669Z,991.49
2018-12-21T08:31:40.553Z,991.39
2018-12-21T08:33:08.804Z,991.44
2018-12-21T08:34:47.627Z,991.52
2018-12-21T08:36:05.250Z,991.53
2018-12-21T08:36:50.205Z,991.47
2018-12-21T08:38:11.101Z,991.43
2018-12-21T08:39:14.080Z,991.34
2018-12-21T08:40:00.777Z,991.40
2018-12-21T08:41:05.803Z,991.42
2018-12-21T08:42:17.078Z,991.40
2018-12-21T08:43:10.840Z,991.34
2018-12-21T08:44:36.348Z,991.36
2018-12-21T08:45:28.674Z,991.29
2018-12-21T08:46:40.357Z,991.34
2018-12-21T08:47:41.499Z,991.28
2018-12-21T08:48:48.360Z,991.21
2018-12-21T08:49:50.518Z,991.19
2018-12-21T08:50:49.196Z,991.19
2018-12-21T08:51:49.822Z,991.17
2018-12-21T08:52:54.336Z,991.06
2018-12-21T08:54:08.167Z,991.03
2018-12-21T08:55:28.246Z,991.05
2018-12-21T08:56:19.655Z,990.77
2018-12-21T08:57:28.775Z,990.87
2018-12-21T08:58:40.253Z,990.87
2018-12-21T08:59:29.922Z,990.87
2018-12-21T09:00:43.042Z,990.84
2018-12-21T09:02:01.483Z,990.87
2018-12-21T09:02:56.572Z,990.91
2018-12-21T09:04:16.346Z,990.91
2018-12-21T09:04:56.077Z,990.79
2018-12-21T09:06:18.264Z,990.87
2018-12-21T09:07:11.456Z,990.73
2018-12-21T09:08:15.359Z,990.67
2018-12-21T09:09:28.699Z,990.72
2018-12-21T09:10:18.962Z,990.72
2018-12-21T09:11:52.766Z,990.66
2018-12-21T09:12:34.752Z,990.54
2018-12-21T09:13:44.183Z,990.49
2018-12-21T09:14:49.009Z,990.46
2018-12-21T09:15:58.845Z,990.43
2018-12-21T09:16:58.856Z,990.40
2018-12-21T09:18:01.233Z,990.44
2018-12-21T09:19:21.611Z,990.44
2018-12-21T09:20:20.692Z,990.41
2018-12-21T09:21:21.015Z,990.36
2018-12-21T09:22:33.540Z,990.44
2018-12-21T09:23:30.861Z,990.32
2018-12-21T09:24:33.938Z,990.34
2018-12-21T09:25:47.885Z,990.27
2018-12-21T09:27:04.167Z,990.25
2018-12-21T09:27:59.067Z,990.22
2018-12-21T09:29:04.804Z,990.23
2018-12-21T09:30:00.913Z,990.18
2018-12-21T09:31:17.305Z,990.19
2018-12-21T09:32:22.545Z,990.11
2018-12-21T09:33:28.380Z,990.06
2018-12-21T09:34:38.426Z,990.13
2018-12-21T09:35:39.460Z,989.96
2018-12-21T09:36:49.501Z,989.92
2018-12-21T09:37:55.559Z,989.91
2018-12-21T09:38:56.175Z,989.87
2018-12-21T09:39:54.244Z,989.95
2018-12-21T09:40:45.231Z,989.91
2018-12-21T09:41:58.663Z,989.90
2018-12-21T09:43:19.452Z,989.83
2018-12-21T09:44:17.309Z,989.72
2018-12-21T09:45:28.686Z,989.78
2018-12-21T09:46:18.862Z,989.74
2018-12-21T09:48:01.682Z,989.75
2018-12-21T09:48:52.266Z,989.72
2018-12-21T09:49:43.466Z,989.64
2018-12-21T09:51:00.270Z,989.40
2018-12-21T09:51:57.722Z,989.27
2018-12-21T09:53:10.118Z,989.37
2018-12-21T09:54:09.535Z,989.61
2018-12-21T09:55:16.490Z,989.76
2018-12-21T09:56:20.282Z,989.70
2018-12-21T09:57:25.820Z,989.71
2018-12-21T09:58:29.634Z,989.70
2018-12-21T09:59:33.722Z,989.61
2018-12-21T10:00:40.081Z,989.67
2018-12-21T10:01:44.285Z,989.50
2018-12-21T10:02:56.284Z,989.47
2018-12-21T10:04:06.322Z,989.43
2018-12-21T10:04:58.142Z,989.20
2018-12-21T10:06:06.188Z,989.02
2018-12-21T10:07:10.647Z,989.12
2018-12-21T10:08:19.363Z,989.34
2018-12-21T10:09:24.194Z,989.28
2018-12-21T10:10:24.909Z,989.47
2018-12-21T10:11:28.607Z,989.51
2018-12-21T10:12:53.812Z,989.35
2018-12-21T10:13:58.734Z,989.30
2018-12-21T10:15:01.195Z,989.24
2018-12-21T10:15:57.635Z,989.32
2018-12-21T10:17:07.971Z,989.32
2018-12-21T10:17:57.032Z,989.18
2018-12-21T10:19:24.707Z,989.23
2018-12-21T10:20:26.639Z,989.12
2018-12-21T10:21:27.467Z,989.17
2018-12-21T10:22:37.105Z,989.21
2018-12-21T10:23:20.727Z,989.17
2018-12-21T10:24:49.606Z,989.17
2018-12-21T10:25:46.249Z,989.10
2018-12-21T10:27:01.500Z,989.04
2018-12-21T10:27:50.652Z,989.13
2018-12-21T10:29:01.516Z,989.04
2018-12-21T10:30:08.896Z,989.10
2018-12-21T10:31:12.389Z,989.05
2018-12-21T10:32:09.632Z,989.04
2018-12-21T10:33:13.430Z,989.02
2018-12-21T10:34:26.445Z,988.94
2018-12-21T10:35:35.772Z,989.04
2018-12-21T10:36:41.514Z,989.04
2018-12-21T10:37:38.452Z,988.99
2018-12-21T10:38:51.059Z,989.07
2018-12-21T10:40:02.025Z,989.01
2018-12-21T10:41:03.565Z,988.98
2018-12-21T10:42:09.726Z,988.98
2018-12-21T10:43:16.277Z,989.09
2018-12-21T10:44:18.030Z,989.00
2018-12-21T10:45:41.262Z,988.99
2018-12-21T10:46:37.403Z,989.03
2018-12-21T10:47:34.237Z,988.99
2018-12-21T10:48:38.342Z,989.01
2018-12-21T10:49:43.707Z,988.99
2018-12-21T10:50:48.704Z,988.99
2018-12-21T10:52:07.348Z,988.93
2018-12-21T10:53:08.994Z,988.91
2018-12-21T10:54:10.444Z,988.92
2018-12-21T10:55:06.972Z,988.94
2018-12-21T10:56:27.462Z,988.98
2018-12-21T10:57:26.336Z,988.92
2018-12-21T10:58:22.352Z,988.87
2018-12-21T10:59:43.175Z,988.89
2018-12-21T11:00:47.152Z,988.90
2018-12-21T11:01:53.920Z,988.83
2018-12-21T11:02:50.038Z,988.76
2018-12-21T11:03:54.247Z,988.85
2018-12-21T11:05:03.886Z,988.89
2018-12-21T11:06:03.302Z,988.91
2018-12-21T11:07:21.949Z,988.83
2018-12-21T11:08:23.572Z,988.85
2018-12-21T11:09:28.905Z,988.82
2018-12-21T11:10:27.615Z,988.78
2018-12-21T11:11:32.714Z,988.77
2018-12-21T11:12:43.582Z,988.79
2018-12-21T11:13:49.940Z,988.74
2018-12-21T11:15:02.137Z,988.73
2018-12-21T11:15:52.102Z,988.78
2018-12-21T11:17:15.254Z,988.76
2018-12-21T11:18:09.736Z,988.77
2018-12-21T11:19:18.334Z,988.73
2018-12-21T11:20:10.980Z,988.78
2018-12-21T11:21:22.975Z,988.69
2018-12-21T11:22:32.916Z,988.71
2018-12-21T11:23:26.059Z,988.70
2018-12-21T11:24:37.026Z,988.78
2018-12-21T11:25:51.777Z,988.78
2018-12-21T11:26:56.715Z,988.79
2018-12-21T11:27:48.396Z,988.70
2018-12-21T11:29:01.643Z,988.74
2018-12-21T11:30:09.849Z,988.74
2018-12-21T11:31:11.384Z,988.75
2018-12-21T11:32:16.820Z,988.76
2018-12-21T11:33:25.431Z,988.75
2018-12-21T11:34:35.989Z,988.79
2018-12-21T11:35:38.661Z,988.76
2018-12-21T11:36:39.696Z,988.71
2018-12-21T11:37:52.813Z,988.73
2018-12-21T11:38:48.824Z,988.67
2018-12-21T11:39:58.969Z,988.70
2018-12-21T11:41:05.337Z,988.64
2018-12-21T11:42:14.557Z,988.57
2018-12-21T11:43:16.817Z,988.56
2018-12-21T11:44:23.277Z,988.64
2018-12-21T11:45:34.344Z,988.62
2018-12-21T11:46:37.220Z,988.57
2018-12-21T11:47:36.409Z,988.58
2018-12-21T11:48:37.439Z,988.53
2018-12-21T11:49:44.723Z,988.51
2018-12-21T11:50:56.823Z,988.47
2018-12-21T11:52:06.454Z,988.42
2018-12-21T11:53:05.235Z,988.38
2018-12-21T11:54:04.521Z,988.46
2018-12-21T11:55:09.140Z,988.39
2018-12-21T11:56:28.192Z,988.53
2018-12-21T11:57:18.910Z,988.50
2018-12-21T11:58:39.228Z,988.51
2018-12-21T11:59:34.057Z,988.40
2018-12-21T12:00:40.923Z,988.39
2018-12-21T12:01:51.377Z,988.46
2018-12-21T12:02:57.734Z,988.38
2018-12-21T12:04:01.023Z,988.47
2018-12-21T12:05:11.177Z,988.32
2018-12-21T12:06:05.035Z,988.36
2018-12-21T12:07:25.935Z,988.38
2018-12-21T12:08:16.421Z,988.36
2018-12-21T12:09:34.142Z,988.37
2018-12-21T12:10:37.326Z,988.37
2018-12-21T12:11:39.383Z,988.27
2018-12-21T12:12:43.689Z,988.39
2018-12-21T12:14:09.298Z,988.36
2018-12-21T12:14:54.051Z,988.34
2018-12-21T12:16:08.708Z,988.31
2018-12-21T12:17:03.291Z,988.34
2018-12-21T12:18:30.449Z,988.36
2018-12-21T12:19:36.584Z,988.30
2018-12-21T12:20:33.312Z,988.35
2018-12-21T12:21:39.056Z,988.28
2018-12-21T12:22:59.235Z,988.38
2018-12-21T12:23:57.300Z,988.40
2018-12-21T12:25:28.338Z,988.34
2018-12-21T12:26:07.150Z,988.42
2018-12-21T12:27:12.588Z,988.32
2018-12-21T12:28:03.995Z,988.33
2018-12-21T12:29:25.624Z,988.38
2018-12-21T12:30:21.221Z,988.39
2018-12-21T12:31:31.263Z,988.36
2018-12-21T12:32:34.445Z,988.53
2018-12-21T12:33:39.782Z,988.34
2018-12-21T12:34:46.451Z,988.37
2018-12-21T12:35:46.349Z,988.40
2018-12-21T12:36:58.955Z,988.40
2018-12-21T12:38:07.154Z,988.33
2018-12-21T12:39:01.630Z,988.32
2018-12-21T12:40:06.349Z,988.43
2018-12-21T12:41:17.419Z,988.46
2018-12-21T12:42:22.143Z,988.47
2018-12-21T12:43:32.395Z,988.45
2018-12-21T12:44:38.029Z,988.48
2018-12-21T12:45:43.162Z,988.45
2018-12-21T12:46:38.250Z,988.45
2018-12-21T12:47:45.839Z,988.42
2018-12-21T12:48:46.459Z,988.47
2018-12-21T12:49:50.154Z,988.42
2018-12-21T12:51:04.406Z,988.42
2018-12-21T12:52:03.997Z,988.52
2018-12-21T12:53:05.440Z,988.31
2018-12-21T12:54:17.328Z,988.40
2018-12-21T12:55:23.073Z,988.45
2018-12-21T12:56:34.147Z,988.44
2018-12-21T12:57:27.496Z,988.52
2018-12-21T12:58:42.456Z,988.48
2018-12-21T12:59:43.489Z,988.48
2018-12-21T13:00:55.603Z,988.47
2018-12-21T13:02:03.278Z,988.42
2018-12-21T13:03:07.176Z,988.48
2018-12-21T13:04:09.955Z,988.46
2018-12-21T13:05:10.570Z,988.42
2018-12-21T13:06:15.191Z,988.57
2018-12-21T13:07:28.303Z,988.53
2018-12-21T13:08:35.176Z,988.34
2018-12-21T13:09:37.436Z,988.46
2018-12-21T13:10:49.227Z,988.49
2018-12-21T13:11:43.801Z,988.46
2018-12-21T13:12:45.974Z,988.52
2018-12-21T13:14:00.411Z,988.48
2018-12-21T13:15:07.997Z,988.47
2018-12-21T13:16:13.536Z,988.56
2018-12-21T13:17:21.529Z,988.66
2018-12-21T13:18:25.944Z,988.45
2018-12-21T13:19:29.235Z,988.55
2018-12-21T13:20:46.339Z,988.53
2018-12-21T13:21:37.549Z,988.50
2018-12-21T13:22:38.474Z,988.51
2018-12-21T13:23:48.312Z,988.57
2018-12-21T13:24:51.599Z,988.55
2018-12-21T13:25:58.775Z,988.52
2018-12-21T13:27:02.479Z,988.59
2018-12-21T13:28:14.360Z,988.50
2018-12-21T13:29:18.155Z,988.56
2018-12-21T13:30:20.624Z,988.64
2018-12-21T13:31:22.718Z,988.69
2018-12-21T13:32:25.041Z,988.65
2018-12-21T13:33:45.532Z,988.63
2018-12-21T13:34:48.610Z,988.69
2018-12-21T13:35:46.061Z,988.78
2018-12-21T13:36:50.981Z,988.71
2018-12-21T13:37:55.905Z,988.80
2018-12-21T13:39:27.053Z,988.80
2018-12-21T13:40:15.485Z,988.56
2018-12-21T13:41:27.576Z,988.80
2018-12-21T13:42:31.170Z,988.86
2018-12-21T13:43:34.465Z,988.90
2018-12-21T13:44:40.105Z,988.89
2018-12-21T13:45:43.483Z,988.80
2018-12-21T13:46:43.902Z,988.93
2018-12-21T13:47:52.523Z,988.94
2018-12-21T13:49:01.022Z,989.01